createdAt,value
2018-09-23T00:00:24.527Z,0.00
2018-09-23T00:01:24.555Z,0.00
2018-09-23T00:02:24.586Z,0.00
2018-09-23T00:03:24.607Z,0.00
2018-09-23T00:04:24.633Z,0.00
2018-09-23T00:05:24.659Z,0.00
2018-09-23T00:06:24.687Z,0.00
2018-09-23T00:07:24.713Z,0.00
2018-09-23T00:08:24.738Z,0.00
2018-09-23T00:09:24.771Z,0.00
2018-09-23T00:10:24.791Z,0.00
2018-09-23T00:11:24.818Z,0.00
2018-09-23T00:12:24.845Z,0.00
2018-09-23T00:13:24.870Z,0.00
2018-09-23T00:14:24.898Z,0.00
2018-09-23T00:15:24.923Z,0.00
2018-09-23T00:16:24.953Z,0.00
2018-09-23T00:17:24.979Z,0.00
2018-09-23T00:18:25.004Z,0.00
2018-09-23T00:19:25.031Z,0.00
2018-09-23T00:20:25.058Z,0.00
2018-09-23T00:21:25.083Z,0.00
2018-09-23T00:22:25.112Z,0.00
2018-09-23T00:23:25.135Z,0.00
2018-09-23T00:24:25.161Z,0.00
2018-09-23T00:25:25.190Z,0.00
2018-09-23T00:26:25.215Z,0.00
2018-09-23T00:27:25.242Z,0.00
2018-09-23T00:28:25.269Z,0.00
2018-09-23T00:29:25.295Z,0.00
2018-09-23T00:30:25.322Z,0.00
2018-09-23T00:31:25.346Z,0.00
2018-09-23T00:32:25.373Z,0.00
2018-09-23T00:33:25.400Z,0.00
2018-09-23T00:34:25.447Z,0.00
2018-09-23T00:35:25.456Z,0.00
2018-09-23T00:36:25.481Z,0.00
2018-09-23T00:37:25.508Z,0.00
2018-09-23T00:38:25.532Z,0.00
2018-09-23T00:39:25.559Z,0.00
2018-09-23T00:40:25.589Z,0.00
2018-09-23T00:41:25.612Z,0.00
2018-09-23T00:42:25.638Z,0.00
2018-09-23T00:43:25.663Z,0.00
2018-09-23T00:44:25.688Z,0.00
2018-09-23T00:45:25.717Z,0.00
2018-09-23T00:46:25.743Z,0.00
2018-09-23T00:47:25.769Z,0.00
2018-09-23T00:48:25.801Z,0.00
2018-09-23T00:49:25.824Z,0.00
2018-09-23T00:50:25.849Z,0.00
2018-09-23T00:51:25.873Z,0.00
2018-09-23T00:52:25.900Z,0.00
2018-09-23T00:53:25.927Z,0.00
2018-09-23T00:54:25.956Z,0.00
2018-09-23T00:55:25.980Z,0.00
2018-09-23T00:56:26.007Z,0.00
2018-09-23T00:57:26.033Z,0.00
2018-09-23T00:58:26.059Z,0.00
2018-09-23T00:59:26.084Z,0.00
2018-09-23T01:00:26.112Z,0.00
2018-09-23T01:01:26.138Z,0.00
2018-09-23T01:02:26.166Z,0.00
2018-09-23T01:03:26.192Z,0.00
2018-09-23T01:04:26.216Z,0.00
2018-09-23T01:05:26.243Z,0.00
2018-09-23T01:06:26.270Z,0.00
2018-09-23T01:07:26.294Z,0.00
2018-09-23T01:08:26.324Z,0.00
2018-09-23T01:09:26.352Z,0.00
2018-09-23T01:10:26.375Z,0.00
2018-09-23T01:11:26.401Z,0.00
2018-09-23T01:12:26.429Z,0.00
2018-09-23T01:13:26.455Z,0.00
2018-09-23T01:14:26.482Z,0.00
2018-09-23T01:15:26.509Z,0.00
2018-09-23T01:16:26.536Z,0.00
2018-09-23T01:17:26.560Z,0.00
2018-09-23T01:18:26.587Z,0.00
2018-09-23T01:19:26.620Z,0.00
2018-09-23T01:20:26.641Z,0.00
2018-09-23T01:21:26.667Z,0.00
2018-09-23T01:22:26.693Z,0.00
2018-09-23T01:23:26.720Z,0.00
2018-09-23T01:24:26.764Z,0.00
2018-09-23T01:25:26.772Z,0.00
2018-09-23T01:26:26.804Z,0.00
2018-09-23T01:27:26.826Z,0.00
2018-09-23T01:28:26.851Z,0.00
2018-09-23T01:29:26.877Z,0.00
2018-09-23T01:30:26.906Z,0.00
2018-09-23T01:31:26.930Z,0.00
2018-09-23T01:32:26.959Z,0.00
2018-09-23T01:33:26.989Z,0.00
2018-09-23T01:34:27.012Z,0.00
2018-09-23T01:35:27.036Z,0.00
2018-09-23T01:36:27.064Z,0.00
2018-09-23T01:37:27.092Z,0.00
2018-09-23T01:38:27.119Z,0.00
2018-09-23T01:39:27.145Z,0.00
2018-09-23T01:40:27.169Z,0.00
2018-09-23T01:41:27.196Z,0.00
2018-09-23T01:42:27.224Z,0.00
2018-09-23T01:43:27.250Z,0.00
2018-09-23T01:44:27.277Z,0.00
2018-09-23T01:45:27.302Z,0.00
2018-09-23T01:46:27.328Z,0.00
2018-09-23T01:47:27.354Z,0.00
2018-09-23T01:48:27.381Z,0.00
2018-09-23T01:49:27.407Z,0.00
2018-09-23T01:50:27.436Z,0.00
2018-09-23T01:51:27.462Z,0.00
2018-09-23T01:52:27.489Z,0.00
2018-09-23T01:53:27.515Z,0.00
2018-09-23T01:54:27.541Z,0.00
2018-09-23T01:55:27.569Z,0.00
2018-09-23T01:56:27.592Z,0.00
2018-09-23T01:57:27.621Z,0.00
2018-09-23T01:58:27.647Z,0.00
2018-09-23T01:59:27.672Z,0.00
2018-09-23T02:00:27.698Z,0.00
2018-09-23T02:01:27.725Z,0.00
2018-09-23T02:02:27.754Z,0.00
2018-09-23T02:03:27.777Z,0.00
2018-09-23T02:04:27.805Z,0.00
2018-09-23T02:05:27.832Z,0.00
2018-09-23T02:06:27.856Z,0.00
2018-09-23T02:07:27.886Z,0.00
2018-09-23T02:08:27.912Z,0.00
2018-09-23T02:09:27.936Z,0.00
2018-09-23T02:10:27.964Z,0.00
2018-09-23T02:11:27.989Z,0.00
2018-09-23T02:12:28.016Z,0.00
2018-09-23T02:13:28.044Z,0.00
2018-09-23T02:14:28.069Z,0.00
2018-09-23T02:15:28.095Z,0.00
2018-09-23T02:16:28.121Z,0.00
2018-09-23T02:17:28.150Z,0.00
2018-09-23T02:18:28.177Z,0.00
2018-09-23T02:19:28.200Z,0.00
2018-09-23T02:20:28.228Z,0.00
2018-09-23T02:21:28.254Z,0.00
2018-09-23T02:22:28.280Z,0.00
2018-09-23T02:23:28.306Z,0.00
2018-09-23T02:24:28.335Z,0.00
2018-09-23T02:25:28.361Z,0.00
2018-09-23T02:26:28.391Z,0.00
2018-09-23T02:27:28.413Z,0.00
2018-09-23T02:28:28.444Z,0.00
2018-09-23T02:29:28.467Z,0.00
2018-09-23T02:30:28.498Z,0.00
2018-09-23T02:31:28.519Z,0.00
2018-09-23T02:32:28.548Z,0.00
2018-09-23T02:33:28.572Z,0.00
2018-09-23T02:34:28.601Z,0.00
2018-09-23T02:35:28.627Z,0.00
2018-09-23T02:36:28.652Z,0.00
2018-09-23T02:37:28.678Z,0.00
2018-09-23T02:38:28.707Z,0.00
2018-09-23T02:39:28.731Z,0.00
2018-09-23T02:40:28.759Z,0.00
2018-09-23T02:41:28.785Z,0.00
2018-09-23T02:42:28.812Z,0.00
2018-09-23T02:43:28.840Z,0.00
2018-09-23T02:44:28.863Z,0.00
2018-09-23T02:45:28.895Z,0.00
2018-09-23T02:46:28.923Z,0.00
2018-09-23T02:47:28.945Z,0.00
2018-09-23T02:48:28.972Z,0.00
2018-09-23T02:49:29.002Z,0.00
2018-09-23T02:50:29.023Z,0.00
2018-09-23T02:51:29.051Z,0.00
2018-09-23T02:52:29.075Z,0.00
2018-09-23T02:53:29.103Z,0.00
2018-09-23T02:54:29.129Z,0.00
2018-09-23T02:55:29.160Z,0.00
2018-09-23T02:56:29.186Z,0.00
2018-09-23T02:57:29.208Z,0.00
2018-09-23T02:58:29.235Z,0.00
2018-09-23T02:59:29.263Z,0.00
2018-09-23T03:00:29.288Z,0.00
2018-09-23T03:01:29.316Z,0.00
2018-09-23T03:02:29.340Z,0.00
2018-09-23T03:03:29.366Z,0.00
2018-09-23T03:04:29.397Z,0.00
2018-09-23T03:05:29.421Z,0.00
2018-09-23T03:06:29.448Z,0.00
2018-09-23T03:07:29.474Z,0.00
2018-09-23T03:08:29.498Z,0.00
2018-09-23T03:09:29.528Z,0.00
2018-09-23T03:10:29.553Z,0.00
2018-09-23T03:11:29.578Z,0.00
2018-09-23T03:12:29.604Z,0.00
2018-09-23T03:13:29.637Z,0.00
2018-09-23T03:14:29.659Z,0.00
2018-09-23T03:15:29.684Z,0.00
2018-09-23T03:16:29.710Z,0.00
2018-09-23T03:17:29.741Z,0.00
2018-09-23T03:18:29.763Z,0.00
2018-09-23T03:19:29.790Z,0.00
2018-09-23T03:20:29.817Z,0.00
2018-09-23T03:21:29.842Z,0.00
2018-09-23T03:22:29.869Z,0.00
2018-09-23T03:23:29.894Z,0.00
2018-09-23T03:24:29.921Z,0.00
2018-09-23T03:25:29.948Z,0.00
2018-09-23T03:26:29.975Z,0.00
2018-09-23T03:27:30.001Z,0.00
2018-09-23T03:28:30.028Z,0.00
2018-09-23T03:29:30.054Z,0.00
2018-09-23T03:30:30.081Z,0.00
2018-09-23T03:31:30.116Z,0.00
2018-09-23T03:32:30.133Z,0.00
2018-09-23T03:33:30.161Z,0.00
2018-09-23T03:34:30.194Z,0.00
2018-09-23T03:35:30.213Z,0.00
2018-09-23T03:36:30.238Z,0.00
2018-09-23T03:37:30.267Z,0.00
2018-09-23T03:38:30.292Z,0.00
2018-09-23T03:39:30.323Z,0.00
2018-09-23T03:40:30.343Z,0.00
2018-09-23T03:41:30.370Z,0.00
2018-09-23T03:42:30.398Z,0.00
2018-09-23T03:43:30.422Z,0.00
2018-09-23T03:44:30.452Z,0.00
2018-09-23T03:45:30.476Z,0.00
2018-09-23T03:46:30.503Z,0.00
2018-09-23T03:47:30.529Z,0.00
2018-09-23T03:48:30.556Z,0.00
2018-09-23T03:49:30.583Z,0.00
2018-09-23T03:50:30.608Z,0.00
2018-09-23T03:51:30.637Z,0.00
2018-09-23T03:52:30.669Z,0.00
2018-09-23T03:53:30.690Z,0.00
2018-09-23T03:54:30.715Z,0.00
2018-09-23T03:55:30.740Z,0.00
2018-09-23T03:56:30.767Z,0.00
2018-09-23T03:57:30.796Z,0.00
2018-09-23T03:58:30.823Z,0.00
2018-09-23T03:59:30.850Z,0.00
2018-09-23T04:00:30.892Z,0.00
2018-09-23T04:01:30.900Z,0.00
2018-09-23T04:02:30.927Z,0.00
2018-09-23T04:03:30.954Z,0.00
2018-09-23T04:04:30.979Z,0.00
2018-09-23T04:05:31.006Z,0.00
2018-09-23T04:06:31.032Z,0.00
2018-09-23T04:07:31.060Z,0.00
2018-09-23T04:08:31.085Z,0.00
2018-09-23T04:09:31.113Z,0.00
2018-09-23T04:10:31.139Z,0.00
2018-09-23T04:11:31.166Z,0.00
2018-09-23T04:12:31.195Z,0.00
2018-09-23T04:13:31.220Z,0.00
2018-09-23T04:14:31.246Z,0.00
2018-09-23T04:15:31.271Z,0.00
2018-09-23T04:16:31.297Z,0.00
2018-09-23T04:17:31.324Z,0.00
2018-09-23T04:18:31.391Z,0.00
2018-09-23T04:19:31.378Z,0.00
2018-09-23T04:20:31.405Z,0.00
2018-09-23T04:21:31.431Z,0.00
2018-09-23T04:22:31.459Z,0.00
2018-09-23T04:23:31.482Z,0.00
2018-09-23T04:24:31.511Z,0.00
2018-09-23T04:25:31.537Z,0.00
2018-09-23T04:26:31.564Z,0.00
2018-09-23T04:27:31.591Z,0.00
2018-09-23T04:28:31.616Z,0.00
2018-09-23T04:29:31.643Z,0.00
2018-09-23T04:30:31.670Z,0.00
2018-09-23T04:31:31.699Z,0.00
2018-09-23T04:32:31.722Z,0.00
2018-09-23T04:33:31.750Z,0.00
2018-09-23T04:34:31.774Z,0.00
2018-09-23T04:35:31.804Z,0.00
2018-09-23T04:36:31.831Z,0.00
2018-09-23T04:37:31.857Z,0.00
2018-09-23T04:38:31.882Z,0.00
2018-09-23T04:39:31.908Z,0.00
2018-09-23T04:40:31.934Z,0.00
2018-09-23T04:41:31.964Z,0.00
2018-09-23T04:42:31.988Z,0.00
2018-09-23T04:43:32.014Z,0.00
2018-09-23T04:44:32.040Z,0.00
2018-09-23T04:45:32.073Z,0.00
2018-09-23T04:46:32.099Z,0.00
2018-09-23T04:47:32.122Z,0.00
2018-09-23T04:48:32.164Z,0.00
2018-09-23T04:49:32.174Z,0.00
2018-09-23T04:50:32.201Z,0.00
2018-09-23T04:51:32.228Z,0.00
2018-09-23T04:52:32.277Z,0.00
2018-09-23T04:53:32.282Z,0.00
2018-09-23T04:54:32.307Z,0.00
2018-09-23T04:55:32.334Z,0.00
2018-09-23T04:56:32.360Z,0.00
2018-09-23T04:57:32.387Z,0.00
2018-09-23T04:58:32.416Z,0.00
2018-09-23T04:59:32.439Z,0.00
2018-09-23T05:00:32.467Z,0.00
2018-09-23T05:01:32.495Z,0.00
2018-09-23T05:02:32.521Z,0.00
2018-09-23T05:03:32.548Z,0.00
2018-09-23T05:04:32.573Z,0.00
2018-09-23T05:05:32.600Z,0.00
2018-09-23T05:06:32.627Z,0.00
2018-09-23T05:07:32.655Z,0.00
2018-09-23T05:08:32.683Z,0.00
2018-09-23T05:09:32.709Z,0.00
2018-09-23T05:10:32.733Z,0.00
2018-09-23T05:11:32.759Z,0.00
2018-09-23T05:12:32.789Z,0.00
2018-09-23T05:13:32.815Z,0.00
2018-09-23T05:14:32.840Z,0.00
2018-09-23T05:15:32.868Z,0.00
2018-09-23T05:16:32.895Z,0.00
2018-09-23T05:17:32.922Z,0.00
2018-09-23T05:18:32.948Z,0.00
2018-09-23T05:19:32.975Z,0.00
2018-09-23T05:20:33.000Z,0.00
2018-09-23T05:21:33.029Z,0.00
2018-09-23T05:22:33.056Z,0.00
2018-09-23T05:23:33.081Z,0.00
2018-09-23T05:24:33.109Z,0.00
2018-09-23T05:25:33.135Z,0.00
2018-09-23T05:26:33.160Z,0.00
2018-09-23T05:27:33.188Z,0.00
2018-09-23T05:28:33.213Z,5.63
2018-09-23T05:29:33.241Z,5.63
2018-09-23T05:30:33.267Z,5.63
2018-09-23T05:31:33.294Z,5.63
2018-09-23T05:32:33.334Z,5.63
2018-09-23T05:33:33.349Z,5.63
2018-09-23T05:34:33.374Z,5.63
2018-09-23T05:35:33.401Z,5.63
2018-09-23T05:36:33.430Z,11.25
2018-09-23T05:37:33.453Z,11.25
2018-09-23T05:38:33.483Z,11.25
2018-09-23T05:39:33.508Z,11.25
2018-09-23T05:40:33.535Z,11.25
2018-09-23T05:41:33.562Z,11.25
2018-09-23T05:42:33.587Z,11.25
2018-09-23T05:43:33.612Z,5.63
2018-09-23T05:44:33.643Z,5.63
2018-09-23T05:45:33.668Z,5.63
2018-09-23T05:46:33.717Z,5.63
2018-09-23T05:47:33.734Z,5.63
2018-09-23T05:48:33.748Z,11.25
2018-09-23T05:49:33.812Z,11.25
2018-09-23T05:50:34.124Z,11.25
2018-09-23T05:51:33.828Z,16.88
2018-09-23T05:52:33.854Z,16.88
2018-09-23T05:53:33.883Z,22.50
2018-09-23T05:54:33.927Z,28.13
2018-09-23T05:55:33.933Z,33.75
2018-09-23T05:56:33.961Z,39.38
2018-09-23T05:57:33.986Z,39.38
2018-09-23T05:58:34.016Z,39.38
2018-09-23T05:59:34.041Z,33.75
2018-09-23T06:00:34.066Z,28.13
2018-09-23T06:01:34.094Z,33.75
2018-09-23T06:02:34.121Z,33.75
2018-09-23T06:03:34.147Z,39.38
2018-09-23T06:04:34.173Z,45.00
2018-09-23T06:05:34.202Z,45.00
2018-09-23T06:06:34.229Z,45.00
2018-09-23T06:07:34.253Z,39.38
2018-09-23T06:08:34.280Z,39.38
2018-09-23T06:09:34.307Z,33.75
2018-09-23T06:10:34.336Z,33.75
2018-09-23T06:11:34.364Z,28.13
2018-09-23T06:12:34.388Z,33.75
2018-09-23T06:13:34.417Z,33.75
2018-09-23T06:14:34.443Z,33.75
2018-09-23T06:15:34.467Z,45.00
2018-09-23T06:16:34.493Z,50.63
2018-09-23T06:17:34.523Z,50.63
2018-09-23T06:18:34.591Z,50.63
2018-09-23T06:19:34.573Z,50.63
2018-09-23T06:20:34.603Z,50.63
2018-09-23T06:21:34.627Z,50.63
2018-09-23T06:22:34.657Z,45.00
2018-09-23T06:23:34.682Z,45.00
2018-09-23T06:24:34.709Z,45.00
2018-09-23T06:25:34.734Z,45.00
2018-09-23T06:26:34.761Z,45.00
2018-09-23T06:27:34.789Z,45.00
2018-09-23T06:28:34.816Z,45.00
2018-09-23T06:29:34.840Z,39.38
2018-09-23T06:30:34.870Z,39.38
2018-09-23T06:31:34.894Z,45.00
2018-09-23T06:32:34.924Z,45.00
2018-09-23T06:33:34.948Z,45.00
2018-09-23T06:34:34.976Z,50.63
2018-09-23T06:35:35.001Z,50.63
2018-09-23T06:36:35.028Z,56.25
2018-09-23T06:37:35.058Z,56.25
2018-09-23T06:38:35.084Z,56.25
2018-09-23T06:39:35.111Z,56.25
2018-09-23T06:40:35.137Z,50.63
2018-09-23T06:41:35.163Z,45.00
2018-09-23T06:42:35.193Z,39.38
2018-09-23T06:43:35.215Z,39.38
2018-09-23T06:44:35.244Z,39.38
2018-09-23T06:45:35.283Z,39.38
2018-09-23T06:46:35.297Z,45.00
2018-09-23T06:47:35.325Z,45.00
2018-09-23T06:48:35.350Z,50.63
2018-09-23T06:49:35.380Z,50.63
2018-09-23T06:50:35.405Z,56.25
2018-09-23T06:51:35.432Z,61.88
2018-09-23T06:52:35.457Z,56.25
2018-09-23T06:53:35.485Z,56.25
2018-09-23T06:54:35.512Z,45.00
2018-09-23T06:55:35.539Z,45.00
2018-09-23T06:56:35.565Z,39.38
2018-09-23T06:57:35.594Z,39.38
2018-09-23T06:58:35.623Z,45.00
2018-09-23T06:59:35.644Z,45.00
2018-09-23T07:00:35.673Z,50.63
2018-09-23T07:01:35.700Z,56.25
2018-09-23T07:02:35.727Z,61.88
2018-09-23T07:03:35.755Z,67.50
2018-09-23T07:04:35.839Z,67.50
2018-09-23T07:05:35.808Z,61.88
2018-09-23T07:06:35.857Z,56.25
2018-09-23T07:07:35.859Z,56.25
2018-09-23T07:08:35.887Z,50.63
2018-09-23T07:09:35.913Z,56.25
2018-09-23T07:10:35.957Z,61.88
2018-09-23T07:11:35.966Z,67.50
2018-09-23T07:12:35.993Z,67.50
2018-09-23T07:13:36.020Z,73.13
2018-09-23T07:14:36.049Z,73.13
2018-09-23T07:15:36.122Z,73.13
2018-09-23T07:16:36.103Z,73.13
2018-09-23T07:17:36.127Z,67.50
2018-09-23T07:18:36.155Z,61.88
2018-09-23T07:19:36.181Z,56.25
2018-09-23T07:20:36.209Z,61.88
2018-09-23T07:21:36.235Z,61.88
2018-09-23T07:22:36.264Z,61.88
2018-09-23T07:23:36.321Z,61.88
2018-09-23T07:24:36.317Z,61.88
2018-09-23T07:25:36.343Z,61.88
2018-09-23T07:26:36.369Z,67.50
2018-09-23T07:27:36.395Z,73.13
2018-09-23T07:28:36.423Z,73.13
2018-09-23T07:29:36.453Z,73.13
2018-09-23T07:30:36.479Z,73.13
2018-09-23T07:31:36.504Z,73.13
2018-09-23T07:32:36.533Z,73.13
2018-09-23T07:33:36.560Z,78.75
2018-09-23T07:34:36.585Z,73.13
2018-09-23T07:35:36.632Z,73.13
2018-09-23T07:36:36.681Z,73.13
2018-09-23T07:37:36.669Z,73.13
2018-09-23T07:38:36.693Z,73.13
2018-09-23T07:39:36.825Z,73.13
2018-09-23T07:40:36.752Z,73.13
2018-09-23T07:41:36.784Z,73.13
2018-09-23T07:42:36.801Z,73.13
2018-09-23T07:43:36.827Z,73.13
2018-09-23T07:44:36.854Z,73.13
2018-09-23T07:45:36.886Z,78.75
2018-09-23T07:46:36.909Z,84.38
2018-09-23T07:47:36.937Z,84.38
2018-09-23T07:48:36.963Z,90.00
2018-09-23T07:49:36.998Z,84.38
2018-09-23T07:50:37.024Z,78.75
2018-09-23T07:51:37.046Z,78.75
2018-09-23T07:52:37.073Z,78.75
2018-09-23T07:53:37.119Z,78.75
2018-09-23T07:54:37.126Z,84.38
2018-09-23T07:55:37.155Z,90.00
2018-09-23T07:56:37.329Z,95.63
2018-09-23T07:57:37.210Z,101.25
2018-09-23T07:58:37.235Z,112.50
2018-09-23T07:59:37.259Z,112.50
2018-09-23T08:00:37.307Z,112.50
2018-09-23T08:01:37.315Z,118.13
2018-09-23T08:02:37.343Z,123.75
2018-09-23T08:03:37.460Z,135.00
2018-09-23T08:04:37.395Z,146.25
2018-09-23T08:05:37.424Z,140.63
2018-09-23T08:06:37.452Z,135.00
2018-09-23T08:07:37.477Z,135.00
2018-09-23T08:08:37.504Z,140.63
2018-09-23T08:09:37.531Z,140.63
2018-09-23T08:10:37.560Z,140.63
2018-09-23T08:11:37.586Z,129.38
2018-09-23T08:12:37.649Z,123.75
2018-09-23T08:13:37.785Z,118.13
2018-09-23T08:14:38.088Z,106.88
2018-09-23T08:15:37.696Z,106.88
2018-09-23T08:16:37.721Z,101.25
2018-09-23T08:17:37.748Z,95.63
2018-09-23T08:18:37.776Z,95.63
2018-09-23T08:19:37.929Z,101.25
2018-09-23T08:20:37.997Z,106.88
2018-09-23T08:21:37.857Z,112.50
2018-09-23T08:22:37.886Z,106.88
2018-09-23T08:23:37.912Z,101.25
2018-09-23T08:24:37.938Z,101.25
2018-09-23T08:25:38.034Z,106.88
2018-09-23T08:26:38.157Z,118.13
2018-09-23T08:27:38.020Z,140.63
2018-09-23T08:28:38.050Z,140.63
2018-09-23T08:29:38.080Z,123.75
2018-09-23T08:30:38.103Z,112.50
2018-09-23T08:31:38.131Z,101.25
2018-09-23T08:32:38.159Z,106.88
2018-09-23T08:33:38.185Z,101.25
2018-09-23T08:34:38.217Z,106.88
2018-09-23T08:35:38.239Z,118.13
2018-09-23T08:36:38.265Z,129.38
2018-09-23T08:37:38.294Z,129.38
2018-09-23T08:38:38.322Z,112.50
2018-09-23T08:39:38.346Z,106.88
2018-09-23T08:40:38.377Z,106.88
2018-09-23T08:41:38.407Z,118.13
2018-09-23T08:42:38.428Z,129.38
2018-09-23T08:43:38.456Z,123.75
2018-09-23T08:44:38.484Z,129.38
2018-09-23T08:45:38.509Z,118.13
2018-09-23T08:46:38.538Z,101.25
2018-09-23T08:47:38.565Z,95.63
2018-09-23T08:48:38.592Z,101.25
2018-09-23T08:49:38.620Z,101.25
2018-09-23T08:50:38.649Z,90.00
2018-09-23T08:51:38.682Z,84.38
2018-09-23T08:52:38.700Z,78.75
2018-09-23T08:53:38.728Z,73.13
2018-09-23T08:54:38.756Z,67.50
2018-09-23T08:55:38.783Z,61.88
2018-09-23T08:56:38.811Z,61.88
2018-09-23T08:57:38.840Z,67.50
2018-09-23T08:58:38.867Z,73.13
2018-09-23T08:59:38.889Z,78.75
2018-09-23T09:00:38.916Z,84.38
2018-09-23T09:01:38.949Z,95.63
2018-09-23T09:02:39.299Z,106.88
2018-09-23T09:03:39.058Z,106.88
2018-09-23T09:04:39.027Z,101.25
2018-09-23T09:05:39.056Z,101.25
2018-09-23T09:06:39.081Z,101.25
2018-09-23T09:07:39.106Z,101.25
2018-09-23T09:08:39.134Z,101.25
2018-09-23T09:09:39.161Z,95.63
2018-09-23T09:10:39.189Z,95.63
2018-09-23T09:11:39.240Z,90.00
2018-09-23T09:12:39.245Z,95.63
2018-09-23T09:13:39.272Z,95.63
2018-09-23T09:14:39.398Z,95.63
2018-09-23T09:15:39.325Z,95.63
2018-09-23T09:16:39.352Z,95.63
2018-09-23T09:17:39.379Z,101.25
2018-09-23T09:18:39.533Z,95.63
2018-09-23T09:19:39.433Z,84.38
2018-09-23T09:20:39.462Z,84.38
2018-09-23T09:21:39.492Z,84.38
2018-09-23T09:22:39.518Z,90.00
2018-09-23T09:23:39.542Z,90.00
2018-09-23T09:24:39.577Z,84.38
2018-09-23T09:25:39.599Z,84.38
2018-09-23T09:26:39.654Z,84.38
2018-09-23T09:27:39.657Z,95.63
2018-09-23T09:28:39.681Z,106.88
2018-09-23T09:29:39.708Z,112.50
2018-09-23T09:30:39.734Z,106.88
2018-09-23T09:31:39.763Z,101.25
2018-09-23T09:32:39.788Z,95.63
2018-09-23T09:33:39.817Z,95.63
2018-09-23T09:34:39.845Z,106.88
2018-09-23T09:35:39.869Z,112.50
2018-09-23T09:36:39.900Z,112.50
2018-09-23T09:37:39.943Z,118.13
2018-09-23T09:38:39.954Z,135.00
2018-09-23T09:39:39.984Z,146.25
2018-09-23T09:40:40.008Z,135.00
2018-09-23T09:41:40.034Z,118.13
2018-09-23T09:42:40.062Z,106.88
2018-09-23T09:43:40.088Z,101.25
2018-09-23T09:44:40.116Z,95.63
2018-09-23T09:45:40.145Z,90.00
2018-09-23T09:46:40.172Z,90.00
2018-09-23T09:47:40.197Z,95.63
2018-09-23T09:48:40.228Z,101.25
2018-09-23T09:49:40.252Z,101.25
2018-09-23T09:50:40.281Z,101.25
2018-09-23T09:51:40.306Z,101.25
2018-09-23T09:52:40.335Z,95.63
2018-09-23T09:53:40.363Z,95.63
2018-09-23T09:54:40.391Z,90.00
2018-09-23T09:55:40.417Z,90.00
2018-09-23T09:56:40.443Z,84.38
2018-09-23T09:57:40.472Z,84.38
2018-09-23T09:58:40.499Z,78.75
2018-09-23T09:59:40.524Z,61.88
2018-09-23T10:00:40.552Z,67.50
2018-09-23T10:01:40.579Z,78.75
2018-09-23T10:02:40.609Z,95.63
2018-09-23T10:03:40.652Z,101.25
2018-09-23T10:04:40.663Z,101.25
2018-09-23T10:05:40.688Z,101.25
2018-09-23T10:06:40.721Z,90.00
2018-09-23T10:07:40.742Z,84.38
2018-09-23T10:08:40.771Z,78.75
2018-09-23T10:09:40.797Z,73.13
2018-09-23T10:10:40.826Z,73.13
2018-09-23T10:11:40.950Z,73.13
2018-09-23T10:12:40.881Z,78.75
2018-09-23T10:13:40.908Z,73.13
2018-09-23T10:14:40.934Z,67.50
2018-09-23T10:15:40.964Z,50.63
2018-09-23T10:16:40.989Z,39.38
2018-09-23T10:17:41.015Z,39.38
2018-09-23T10:18:41.042Z,39.38
2018-09-23T10:19:41.074Z,45.00
2018-09-23T10:20:41.101Z,50.63
2018-09-23T10:21:41.126Z,56.25
2018-09-23T10:22:41.516Z,61.88
2018-09-23T10:23:41.394Z,67.50
2018-09-23T10:24:41.208Z,73.13
2018-09-23T10:25:41.235Z,73.13
2018-09-23T10:26:41.260Z,73.13
2018-09-23T10:27:41.289Z,67.50
2018-09-23T10:28:41.313Z,67.50
2018-09-23T10:29:41.377Z,67.50
2018-09-23T10:30:41.369Z,61.88
2018-09-23T10:31:41.453Z,61.88
2018-09-23T10:32:41.422Z,61.88
2018-09-23T10:33:41.451Z,56.25
2018-09-23T10:34:41.480Z,56.25
2018-09-23T10:35:41.506Z,50.63
2018-09-23T10:36:41.531Z,45.00
2018-09-23T10:37:41.559Z,45.00
2018-09-23T10:38:41.586Z,45.00
2018-09-23T10:39:41.614Z,39.38
2018-09-23T10:40:41.640Z,28.13
2018-09-23T10:41:41.669Z,28.13
2018-09-23T10:42:41.695Z,22.50
2018-09-23T10:43:41.723Z,22.50
2018-09-23T10:44:41.752Z,22.50
2018-09-23T10:45:41.777Z,28.13
2018-09-23T10:46:41.802Z,33.75
2018-09-23T10:47:41.829Z,33.75
2018-09-23T10:48:41.856Z,28.13
2018-09-23T10:49:41.885Z,33.75
2018-09-23T10:50:41.912Z,39.38
2018-09-23T10:51:41.939Z,39.38
2018-09-23T10:52:41.965Z,33.75
2018-09-23T10:53:41.994Z,33.75
2018-09-23T10:54:42.021Z,33.75
2018-09-23T10:55:42.068Z,33.75
2018-09-23T10:56:42.074Z,33.75
2018-09-23T10:57:42.102Z,45.00
2018-09-23T10:58:42.132Z,50.63
2018-09-23T10:59:42.154Z,56.25
2018-09-23T11:00:42.183Z,61.88
2018-09-23T11:01:42.208Z,61.88
2018-09-23T11:02:42.237Z,67.50
2018-09-23T11:03:42.317Z,67.50
2018-09-23T11:04:42.291Z,73.13
2018-09-23T11:05:42.317Z,84.38
2018-09-23T11:06:42.346Z,84.38
2018-09-23T11:07:42.371Z,90.00
2018-09-23T11:08:42.398Z,90.00
2018-09-23T11:09:42.432Z,90.00
2018-09-23T11:10:42.460Z,95.63
2018-09-23T11:11:42.477Z,101.25
2018-09-23T11:12:42.510Z,101.25
2018-09-23T11:13:42.533Z,101.25
2018-09-23T11:14:42.561Z,95.63
2018-09-23T11:15:42.588Z,90.00
2018-09-23T11:16:42.614Z,95.63
2018-09-23T11:17:42.643Z,84.38
2018-09-23T11:18:42.667Z,78.75
2018-09-23T11:19:42.696Z,67.50
2018-09-23T11:20:42.721Z,61.88
2018-09-23T11:21:42.751Z,61.88
2018-09-23T11:22:42.781Z,56.25
2018-09-23T11:23:42.802Z,56.25
2018-09-23T11:24:42.889Z,50.63
2018-09-23T11:25:42.858Z,50.63
2018-09-23T11:26:42.885Z,45.00
2018-09-23T11:27:42.909Z,39.38
2018-09-23T11:28:42.939Z,39.38
2018-09-23T11:29:42.964Z,61.88
2018-09-23T11:30:43.058Z,67.50
2018-09-23T11:31:43.020Z,84.38
2018-09-23T11:32:43.047Z,95.63
2018-09-23T11:33:43.072Z,101.25
2018-09-23T11:34:43.101Z,95.63
2018-09-23T11:35:43.125Z,90.00
2018-09-23T11:36:43.153Z,95.63
2018-09-23T11:37:43.179Z,112.50
2018-09-23T11:38:43.207Z,151.88
2018-09-23T11:39:43.239Z,151.88
2018-09-23T11:40:43.262Z,157.50
2018-09-23T11:41:43.288Z,168.75
2018-09-23T11:42:43.361Z,157.50
2018-09-23T11:43:43.343Z,146.25
2018-09-23T11:44:43.368Z,129.38
2018-09-23T11:45:43.398Z,146.25
2018-09-23T11:46:43.423Z,157.50
2018-09-23T11:47:43.449Z,151.88
2018-09-23T11:48:43.479Z,140.63
2018-09-23T11:49:43.504Z,129.38
2018-09-23T11:50:43.533Z,112.50
2018-09-23T11:51:43.557Z,95.63
2018-09-23T11:52:43.586Z,67.50
2018-09-23T11:53:43.616Z,61.88
2018-09-23T11:54:43.639Z,45.00
2018-09-23T11:55:43.673Z,45.00
2018-09-23T11:56:43.695Z,39.38
2018-09-23T11:57:43.726Z,50.63
2018-09-23T11:58:43.808Z,73.13
2018-09-23T11:59:43.774Z,78.75
2018-09-23T12:00:43.803Z,73.13
2018-09-23T12:01:43.830Z,61.88
2018-09-23T12:02:43.856Z,61.88
2018-09-23T12:03:43.885Z,50.63
2018-09-23T12:04:43.911Z,45.00
2018-09-23T12:05:43.954Z,50.63
2018-09-23T12:06:43.963Z,56.25
2018-09-23T12:07:43.992Z,56.25
2018-09-23T12:08:44.018Z,61.88
2018-09-23T12:09:44.046Z,67.50
2018-09-23T12:10:44.142Z,67.50
2018-09-23T12:11:44.315Z,61.88
2018-09-23T12:12:44.125Z,61.88
2018-09-23T12:13:44.152Z,50.63
2018-09-23T12:14:44.206Z,56.25
2018-09-23T12:15:44.304Z,56.25
2018-09-23T12:16:44.233Z,56.25
2018-09-23T12:17:44.260Z,56.25
2018-09-23T12:18:44.289Z,50.63
2018-09-23T12:19:44.315Z,39.38
2018-09-23T12:20:44.342Z,39.38
2018-09-23T12:21:44.370Z,45.00
2018-09-23T12:22:44.394Z,45.00
2018-09-23T12:23:44.422Z,39.38
2018-09-23T12:24:44.450Z,45.00
2018-09-23T12:25:44.637Z,67.50
2018-09-23T12:26:44.502Z,73.13
2018-09-23T12:27:44.530Z,90.00
2018-09-23T12:28:44.554Z,90.00
2018-09-23T12:29:44.649Z,101.25
2018-09-23T12:30:44.613Z,112.50
2018-09-23T12:31:44.641Z,101.25
2018-09-23T12:32:44.664Z,118.13
2018-09-23T12:33:44.690Z,101.25
2018-09-23T12:34:44.718Z,118.13
2018-09-23T12:35:44.744Z,112.50
2018-09-23T12:36:44.779Z,95.63
2018-09-23T12:37:44.797Z,95.63
2018-09-23T12:38:44.850Z,67.50
2018-09-23T12:39:44.903Z,50.63
2018-09-23T12:40:44.876Z,45.00
2018-09-23T12:41:44.916Z,39.38
2018-09-23T12:42:44.936Z,33.75
2018-09-23T12:43:44.957Z,39.38
2018-09-23T12:44:44.988Z,39.38
2018-09-23T12:45:45.026Z,45.00
2018-09-23T12:46:45.037Z,56.25
2018-09-23T12:47:45.064Z,61.88
2018-09-23T12:48:45.090Z,56.25
2018-09-23T12:49:45.119Z,61.88
2018-09-23T12:50:45.145Z,61.88
2018-09-23T12:51:45.171Z,61.88
2018-09-23T12:52:45.197Z,61.88
2018-09-23T12:53:45.227Z,61.88
2018-09-23T12:54:45.252Z,61.88
2018-09-23T12:55:45.280Z,73.13
2018-09-23T12:56:45.306Z,84.38
2018-09-23T12:57:45.333Z,101.25
2018-09-23T12:58:45.357Z,90.00
2018-09-23T12:59:45.385Z,90.00
2018-09-23T13:00:45.411Z,90.00